sensor_id;sensor_type;location;lat;lon;timestamp;P1;durP1;ratioP1;P2;durP2;ratioP2
6197;SDS011;3132;42.622;23.328;2022-08-20T00:00:44;11.57;;;10.35;;
6197;SDS011;3132;42.622;23.328;2022-08-20T00:06:05;10.90;;;9.90;;
6197;SDS011;3132;42.622;23.328;2022-08-20T00:08:31;11.23;;;10.32;;
6197;SDS011;3132;42.622;23.328;2022-08-20T00:10:57;12.88;;;10.02;;
6197;SDS011;3132;42.622;23.328;2022-08-20T00:13:29;10.30;;;9.30;;
6197;SDS011;3132;42.622;23.328;2022-08-20T00:16:00;11.73;;;10.55;;
6197;SDS011;3132;42.622;23.328;2022-08-20T00:18:26;11.27;;;10.40;;
6197;SDS011;3132;42.622;23.328;2022-08-20T00:20:53;11.15;;;10.02;;
6197;SDS011;3132;42.622;23.328;2022-08-20T00:23:20;10.93;;;10.07;;
6197;SDS011;3132;42.622;23.328;2022-08-20T00:25:46;11.07;;;10.15;;
6197;SDS011;3132;42.622;23.328;2022-08-20T00:28:12;10.77;;;10.02;;
6197;SDS011;3132;42.622;23.328;2022-08-20T00:30:39;10.38;;;9.68;;
6197;SDS011;3132;42.622;23.328;2022-08-20T00:33:09;10.95;;;10.05;;
6197;SDS011;3132;42.622;23.328;2022-08-20T00:35:39;11.50;;;10.50;;
6197;SDS011;3132;42.622;23.328;2022-08-20T00:38:08;10.57;;;9.88;;
6197;SDS011;3132;42.622;23.328;2022-08-20T00:40:36;12.35;;;11.35;;
6197;SDS011;3132;42.622;23.328;2022-08-20T00:43:04;11.10;;;10.30;;
6197;SDS011;3132;42.622;23.328;2022-08-20T00:45:33;12.25;;;10.68;;
6197;SDS011;3132;42.622;23.328;2022-08-20T00:47:59;12.10;;;10.88;;
6197;SDS011;3132;42.622;23.328;2022-08-20T00:50:26;9.93;;;9.23;;
6197;SDS011;3132;42.622;23.328;2022-08-20T00:52:57;10.85;;;10.05;;
6197;SDS011;3132;42.622;23.328;2022-08-20T00:55:24;11.43;;;10.35;;
6197;SDS011;3132;42.622;23.328;2022-08-20T00:57:51;10.80;;;9.90;;
6197;SDS011;3132;42.622;23.328;2022-08-20T01:00:21;11.57;;;10.77;;
6197;SDS011;3132;42.622;23.328;2022-08-20T01:02:49;11.82;;;10.82;;
6197;SDS011;3132;42.622;23.328;2022-08-20T01:05:15;11.00;;;10.10;;
6197;SDS011;3132;42.622;23.328;2022-08-20T01:07:41;11.60;;;10.70;;
6197;SDS011;3132;42.622;23.328;2022-08-20T01:12:34;11.80;;;10.80;;
6197;SDS011;3132;42.622;23.328;2022-08-20T01:15:04;12.35;;;10.43;;
6197;SDS011;3132;42.622;23.328;2022-08-20T01:17:35;11.80;;;10.65;;
6197;SDS011;3132;42.622;23.328;2022-08-20T01:20:09;10.70;;;9.80;;
6197;SDS011;3132;42.622;23.328;2022-08-20T01:25:37;11.30;;;10.48;;
6197;SDS011;3132;42.622;23.328;2022-08-20T01:31:10;11.85;;;10.70;;
6197;SDS011;3132;42.622;23.328;2022-08-20T01:33:38;12.15;;;11.15;;
6197;SDS011;3132;42.622;23.328;2022-08-20T01:36:04;12.05;;;11.07;;
6197;SDS011;3132;42.622;23.328;2022-08-20T01:38:31;13.00;;;11.82;;
6197;SDS011;3132;42.622;23.328;2022-08-20T01:43:39;11.43;;;10.48;;
6197;SDS011;3132;42.622;23.328;2022-08-20T01:46:06;10.80;;;9.93;;
6197;SDS011;3132;42.622;23.328;2022-08-20T01:48:34;12.32;;;11.27;;
6197;SDS011;3132;42.622;23.328;2022-08-20T01:51:05;11.25;;;10.30;;
6197;SDS011;3132;42.622;23.328;2022-08-20T01:53:43;12.07;;;10.95;;
6197;SDS011;3132;42.622;23.328;2022-08-20T01:56:14;11.00;;;10.00;;
6197;SDS011;3132;42.622;23.328;2022-08-20T01:58:43;10.95;;;10.05;;
6197;SDS011;3132;42.622;23.328;2022-08-20T02:04:03;11.55;;;10.55;;
6197;SDS011;3132;42.622;23.328;2022-08-20T02:06:31;11.95;;;10.82;;
6197;SDS011;3132;42.622;23.328;2022-08-20T02:08:59;11.20;;;10.20;;
6197;SDS011;3132;42.622;23.328;2022-08-20T02:11:26;11.63;;;10.57;;
6197;SDS011;3132;42.622;23.328;2022-08-20T02:13:53;10.75;;;9.85;;
6197;SDS011;3132;42.622;23.328;2022-08-20T02:16:23;11.95;;;11.00;;
6197;SDS011;3132;42.622;23.328;2022-08-20T02:18:56;10.40;;;9.60;;
6197;SDS011;3132;42.622;23.328;2022-08-20T02:21:27;11.75;;;10.82;;
6197;SDS011;3132;42.622;23.328;2022-08-20T02:23:56;10.90;;;10.10;;
6197;SDS011;3132;42.622;23.328;2022-08-20T02:26:22;11.43;;;10.43;;
6197;SDS011;3132;42.622;23.328;2022-08-20T02:28:49;11.75;;;10.93;;
6197;SDS011;3132;42.622;23.328;2022-08-20T02:31:16;10.88;;;9.98;;
6197;SDS011;3132;42.622;23.328;2022-08-20T02:33:43;10.95;;;10.05;;
6197;SDS011;3132;42.622;23.328;2022-08-20T02:36:10;12.90;;;9.77;;
6197;SDS011;3132;42.622;23.328;2022-08-20T02:38:37;10.93;;;10.18;;
6197;SDS011;3132;42.622;23.328;2022-08-20T02:41:05;11.82;;;10.82;;
6197;SDS011;3132;42.622;23.328;2022-08-20T02:43:30;12.65;;;11.32;;
6197;SDS011;3132;42.622;23.328;2022-08-20T02:45:56;12.73;;;11.52;;
6197;SDS011;3132;42.622;23.328;2022-08-20T02:48:23;13.13;;;11.88;;
6197;SDS011;3132;42.622;23.328;2022-08-20T02:50:51;11.82;;;10.85;;
6197;SDS011;3132;42.622;23.328;2022-08-20T02:53:18;11.88;;;10.88;;
6197;SDS011;3132;42.622;23.328;2022-08-20T02:55:44;11.90;;;10.57;;
6197;SDS011;3132;42.622;23.328;2022-08-20T02:58:09;12.35;;;11.10;;
6197;SDS011;3132;42.622;23.328;2022-08-20T03:00:35;12.70;;;11.50;;
6197;SDS011;3132;42.622;23.328;2022-08-20T03:03:01;12.43;;;11.15;;
6197;SDS011;3132;42.622;23.328;2022-08-20T03:05:26;13.02;;;12.02;;
6197;SDS011;3132;42.622;23.328;2022-08-20T03:07:52;11.98;;;10.88;;
6197;SDS011;3132;42.622;23.328;2022-08-20T03:10:28;11.88;;;10.98;;
6197;SDS011;3132;42.622;23.328;2022-08-20T03:12:57;12.27;;;11.20;;
6197;SDS011;3132;42.622;23.328;2022-08-20T03:15:24;12.55;;;11.35;;
6197;SDS011;3132;42.622;23.328;2022-08-20T03:17:50;16.27;;;11.13;;
6197;SDS011;3132;42.622;23.328;2022-08-20T03:20:15;12.15;;;11.15;;
6197;SDS011;3132;42.622;23.328;2022-08-20T03:22:41;12.48;;;11.38;;
6197;SDS011;3132;42.622;23.328;2022-08-20T03:25:06;14.68;;;11.70;;
6197;SDS011;3132;42.622;23.328;2022-08-20T03:27:32;13.10;;;12.00;;
6197;SDS011;3132;42.622;23.328;2022-08-20T03:29:58;13.35;;;12.15;;
6197;SDS011;3132;42.622;23.328;2022-08-20T03:32:23;13.13;;;12.07;;
6197;SDS011;3132;42.622;23.328;2022-08-20T03:34:49;12.15;;;11.15;;
6197;SDS011;3132;42.622;23.328;2022-08-20T03:37:14;11.43;;;10.52;;
6197;SDS011;3132;42.622;23.328;2022-08-20T03:39:40;13.02;;;11.70;;
6197;SDS011;3132;42.622;23.328;2022-08-20T03:42:05;12.82;;;11.82;;
6197;SDS011;3132;42.622;23.328;2022-08-20T03:44:31;12.93;;;11.77;;
6197;SDS011;3132;42.622;23.328;2022-08-20T03:46:57;13.13;;;11.85;;
6197;SDS011;3132;42.622;23.328;2022-08-20T03:49:22;12.55;;;11.50;;
6197;SDS011;3132;42.622;23.328;2022-08-20T03:51:48;11.65;;;10.73;;
6197;SDS011;3132;42.622;23.328;2022-08-20T03:54:14;13.13;;;11.88;;
6197;SDS011;3132;42.622;23.328;2022-08-20T03:56:40;12.85;;;11.65;;
6197;SDS011;3132;42.622;23.328;2022-08-20T03:59:05;11.93;;;11.02;;
6197;SDS011;3132;42.622;23.328;2022-08-20T04:01:30;12.52;;;11.63;;
6197;SDS011;3132;42.622;23.328;2022-08-20T04:03:56;13.95;;;11.60;;
6197;SDS011;3132;42.622;23.328;2022-08-20T04:06:22;12.20;;;11.25;;
6197;SDS011;3132;42.622;23.328;2022-08-20T04:08:48;12.15;;;11.18;;
6197;SDS011;3132;42.622;23.328;2022-08-20T04:11:14;12.57;;;11.38;;
6197;SDS011;3132;42.622;23.328;2022-08-20T04:13:39;11.27;;;10.38;;
6197;SDS011;3132;42.622;23.328;2022-08-20T04:16:05;13.73;;;12.40;;
6197;SDS011;3132;42.622;23.328;2022-08-20T04:18:33;13.63;;;12.27;;
6197;SDS011;3132;42.622;23.328;2022-08-20T04:21:01;12.50;;;11.43;;
6197;SDS011;3132;42.622;23.328;2022-08-20T04:23:27;13.40;;;12.23;;
6197;SDS011;3132;42.622;23.328;2022-08-20T04:25:53;12.68;;;11.55;;
6197;SDS011;3132;42.622;23.328;2022-08-20T04:28:20;12.35;;;11.35;;
6197;SDS011;3132;42.622;23.328;2022-08-20T04:30:51;11.27;;;10.32;;
6197;SDS011;3132;42.622;23.328;2022-08-20T04:33:19;12.38;;;11.38;;
6197;SDS011;3132;42.622;23.328;2022-08-20T04:35:45;12.32;;;11.23;;
6197;SDS011;3132;42.622;23.328;2022-08-20T04:38:12;12.20;;;11.20;;
6197;SDS011;3132;42.622;23.328;2022-08-20T04:40:40;11.55;;;10.63;;
6197;SDS011;3132;42.622;23.328;2022-08-20T04:43:18;13.00;;;11.80;;
6197;SDS011;3132;42.622;23.328;2022-08-20T04:45:45;12.52;;;11.23;;
6197;SDS011;3132;42.622;23.328;2022-08-20T04:48:10;15.90;;;11.18;;
6197;SDS011;3132;42.622;23.328;2022-08-20T04:50:37;12.52;;;11.43;;
6197;SDS011;3132;42.622;23.328;2022-08-20T04:53:05;12.80;;;11.52;;
6197;SDS011;3132;42.622;23.328;2022-08-20T04:55:33;12.32;;;11.40;;
6197;SDS011;3132;42.622;23.328;2022-08-20T04:58:03;13.02;;;11.65;;
6197;SDS011;3132;42.622;23.328;2022-08-20T05:00:30;13.07;;;11.40;;
6197;SDS011;3132;42.622;23.328;2022-08-20T05:02:56;12.07;;;11.07;;
6197;SDS011;3132;42.622;23.328;2022-08-20T05:05:22;13.02;;;11.82;;
6197;SDS011;3132;42.622;23.328;2022-08-20T05:07:48;12.73;;;11.45;;
6197;SDS011;3132;42.622;23.328;2022-08-20T05:10:15;11.68;;;10.70;;
6197;SDS011;3132;42.622;23.328;2022-08-20T05:12:42;12.45;;;11.45;;
6197;SDS011;3132;42.622;23.328;2022-08-20T05:15:09;11.82;;;10.82;;
6197;SDS011;3132;42.622;23.328;2022-08-20T05:17:36;13.63;;;12.45;;
6197;SDS011;3132;42.622;23.328;2022-08-20T05:20:06;13.05;;;11.95;;
6197;SDS011;3132;42.622;23.328;2022-08-20T05:22:34;13.00;;;12.00;;
6197;SDS011;3132;42.622;23.328;2022-08-20T05:25:00;12.45;;;11.40;;
6197;SDS011;3132;42.622;23.328;2022-08-20T05:27:26;13.27;;;12.18;;
6197;SDS011;3132;42.622;23.328;2022-08-20T05:30:02;13.38;;;12.18;;
6197;SDS011;3132;42.622;23.328;2022-08-20T05:32:31;12.95;;;11.77;;
6197;SDS011;3132;42.622;23.328;2022-08-20T05:34:57;13.18;;;11.82;;
6197;SDS011;3132;42.622;23.328;2022-08-20T05:37:25;15.60;;;11.10;;
6197;SDS011;3132;42.622;23.328;2022-08-20T05:39:51;13.05;;;11.75;;
6197;SDS011;3132;42.622;23.328;2022-08-20T05:42:17;12.77;;;11.57;;
6197;SDS011;3132;42.622;23.328;2022-08-20T05:44:42;12.52;;;11.57;;
6197;SDS011;3132;42.622;23.328;2022-08-20T05:47:11;11.90;;;11.00;;
6197;SDS011;3132;42.622;23.328;2022-08-20T05:49:37;13.10;;;11.85;;
6197;SDS011;3132;42.622;23.328;2022-08-20T05:52:03;12.13;;;11.25;;
6197;SDS011;3132;42.622;23.328;2022-08-20T05:54:29;12.82;;;11.70;;
6197;SDS011;3132;42.622;23.328;2022-08-20T05:56:55;11.80;;;10.73;;
6197;SDS011;3132;42.622;23.328;2022-08-20T05:59:21;11.90;;;10.90;;
6197;SDS011;3132;42.622;23.328;2022-08-20T06:01:48;13.35;;;12.05;;
6197;SDS011;3132;42.622;23.328;2022-08-20T06:04:14;11.95;;;10.95;;
6197;SDS011;3132;42.622;23.328;2022-08-20T06:07:05;12.68;;;11.55;;
6197;SDS011;3132;42.622;23.328;2022-08-20T06:09:31;12.80;;;11.48;;
6197;SDS011;3132;42.622;23.328;2022-08-20T06:11:57;11.10;;;10.10;;
6197;SDS011;3132;42.622;23.328;2022-08-20T06:14:27;13.77;;;11.50;;
6197;SDS011;3132;42.622;23.328;2022-08-20T06:16:53;12.07;;;10.57;;
6197;SDS011;3132;42.622;23.328;2022-08-20T06:19:18;12.57;;;11.38;;
6197;SDS011;3132;42.622;23.328;2022-08-20T06:21:43;11.48;;;10.45;;
6197;SDS011;3132;42.622;23.328;2022-08-20T06:24:09;12.27;;;11.07;;
6197;SDS011;3132;42.622;23.328;2022-08-20T06:26:34;12.60;;;11.50;;
6197;SDS011;3132;42.622;23.328;2022-08-20T06:29:01;13.00;;;11.73;;
6197;SDS011;3132;42.622;23.328;2022-08-20T06:31:28;13.40;;;12.35;;
6197;SDS011;3132;42.622;23.328;2022-08-20T06:33:53;14.43;;;11.85;;
6197;SDS011;3132;42.622;23.328;2022-08-20T06:36:19;15.70;;;10.85;;
6197;SDS011;3132;42.622;23.328;2022-08-20T06:38:45;11.40;;;10.40;;
6197;SDS011;3132;42.622;23.328;2022-08-20T06:41:10;12.75;;;11.40;;
6197;SDS011;3132;42.622;23.328;2022-08-20T06:43:36;12.23;;;11.20;;
6197;SDS011;3132;42.622;23.328;2022-08-20T06:46:01;12.18;;;11.18;;
6197;SDS011;3132;42.622;23.328;2022-08-20T06:48:27;13.30;;;12.02;;
6197;SDS011;3132;42.622;23.328;2022-08-20T06:50:53;12.20;;;11.20;;
6197;SDS011;3132;42.622;23.328;2022-08-20T06:53:18;13.82;;;11.43;;
6197;SDS011;3132;42.622;23.328;2022-08-20T06:55:46;14.13;;;12.70;;
6197;SDS011;3132;42.622;23.328;2022-08-20T06:58:15;16.35;;;12.07;;
6197;SDS011;3132;42.622;23.328;2022-08-20T07:00:41;12.48;;;11.40;;
6197;SDS011;3132;42.622;23.328;2022-08-20T07:03:08;12.30;;;11.07;;
6197;SDS011;3132;42.622;23.328;2022-08-20T07:05:37;16.88;;;12.60;;
6197;SDS011;3132;42.622;23.328;2022-08-20T07:08:06;13.43;;;12.23;;
6197;SDS011;3132;42.622;23.328;2022-08-20T07:10:37;13.48;;;11.85;;
6197;SDS011;3132;42.622;23.328;2022-08-20T07:13:04;14.10;;;11.90;;
6197;SDS011;3132;42.622;23.328;2022-08-20T07:15:30;12.50;;;11.38;;
6197;SDS011;3132;42.622;23.328;2022-08-20T07:17:57;13.13;;;11.98;;
6197;SDS011;3132;42.622;23.328;2022-08-20T07:20:25;13.45;;;11.40;;
6197;SDS011;3132;42.622;23.328;2022-08-20T07:22:52;12.60;;;10.35;;
6197;SDS011;3132;42.622;23.328;2022-08-20T07:25:18;13.38;;;12.13;;
6197;SDS011;3132;42.622;23.328;2022-08-20T07:27:45;13.00;;;11.68;;
6197;SDS011;3132;42.622;23.328;2022-08-20T07:30:14;12.35;;;11.45;;
6197;SDS011;3132;42.622;23.328;2022-08-20T07:33:01;14.18;;;13.02;;
6197;SDS011;3132;42.622;23.328;2022-08-20T07:35:27;13.93;;;12.77;;
6197;SDS011;3132;42.622;23.328;2022-08-20T07:37:53;12.63;;;11.20;;
6197;SDS011;3132;42.622;23.328;2022-08-20T07:40:29;13.05;;;11.77;;
6197;SDS011;3132;42.622;23.328;2022-08-20T07:42:57;13.00;;;11.90;;
6197;SDS011;3132;42.622;23.328;2022-08-20T07:45:25;14.20;;;12.77;;
6197;SDS011;3132;42.622;23.328;2022-08-20T07:47:51;14.77;;;11.93;;
6197;SDS011;3132;42.622;23.328;2022-08-20T07:50:23;13.32;;;11.90;;
6197;SDS011;3132;42.622;23.328;2022-08-20T07:52:50;12.68;;;11.55;;
6197;SDS011;3132;42.622;23.328;2022-08-20T07:55:17;12.48;;;11.55;;
6197;SDS011;3132;42.622;23.328;2022-08-20T07:57:46;12.48;;;11.43;;
6197;SDS011;3132;42.622;23.328;2022-08-20T08:00:13;13.15;;;11.98;;
6197;SDS011;3132;42.622;23.328;2022-08-20T08:02:39;12.60;;;11.60;;
6197;SDS011;3132;42.622;23.328;2022-08-20T08:05:05;13.60;;;12.32;;
6197;SDS011;3132;42.622;23.328;2022-08-20T08:07:31;13.93;;;12.18;;
6197;SDS011;3132;42.622;23.328;2022-08-20T08:09:58;13.85;;;12.13;;
6197;SDS011;3132;42.622;23.328;2022-08-20T08:12:26;13.32;;;12.13;;
6197;SDS011;3132;42.622;23.328;2022-08-20T08:14:59;12.82;;;11.82;;
6197;SDS011;3132;42.622;23.328;2022-08-20T08:17:24;13.10;;;12.10;;
6197;SDS011;3132;42.622;23.328;2022-08-20T08:19:49;14.02;;;12.82;;
6197;SDS011;3132;42.622;23.328;2022-08-20T08:22:16;12.27;;;11.20;;
6197;SDS011;3132;42.622;23.328;2022-08-20T08:24:43;13.55;;;12.18;;
6197;SDS011;3132;42.622;23.328;2022-08-20T08:27:11;14.05;;;12.80;;
6197;SDS011;3132;42.622;23.328;2022-08-20T08:29:37;13.00;;;11.85;;
6197;SDS011;3132;42.622;23.328;2022-08-20T08:32:03;12.55;;;11.55;;
6197;SDS011;3132;42.622;23.328;2022-08-20T08:34:31;13.32;;;11.95;;
6197;SDS011;3132;42.622;23.328;2022-08-20T08:36:59;12.55;;;11.45;;
6197;SDS011;3132;42.622;23.328;2022-08-20T08:39:27;18.65;;;12.70;;
6197;SDS011;3132;42.622;23.328;2022-08-20T08:41:55;11.98;;;11.07;;
6197;SDS011;3132;42.622;23.328;2022-08-20T08:44:29;13.25;;;12.15;;
6197;SDS011;3132;42.622;23.328;2022-08-20T08:47:00;13.00;;;11.93;;
6197;SDS011;3132;42.622;23.328;2022-08-20T08:49:34;15.10;;;12.65;;
6197;SDS011;3132;42.622;23.328;2022-08-20T08:52:01;12.52;;;11.32;;
6197;SDS011;3132;42.622;23.328;2022-08-20T08:54:31;13.23;;;12.00;;
6197;SDS011;3132;42.622;23.328;2022-08-20T08:56:59;13.90;;;12.43;;
6197;SDS011;3132;42.622;23.328;2022-08-20T08:59:27;13.95;;;12.60;;
6197;SDS011;3132;42.622;23.328;2022-08-20T09:01:55;12.70;;;11.50;;
6197;SDS011;3132;42.622;23.328;2022-08-20T09:04:27;14.00;;;12.55;;
6197;SDS011;3132;42.622;23.328;2022-08-20T09:06:56;12.60;;;11.40;;
6197;SDS011;3132;42.622;23.328;2022-08-20T09:09:32;13.48;;;12.20;;
6197;SDS011;3132;42.622;23.328;2022-08-20T09:12:11;12.07;;;10.98;;
6197;SDS011;3132;42.622;23.328;2022-08-20T09:14:38;12.93;;;11.80;;
6197;SDS011;3132;42.622;23.328;2022-08-20T09:17:04;12.55;;;11.45;;
6197;SDS011;3132;42.622;23.328;2022-08-20T09:19:30;13.25;;;12.15;;
6197;SDS011;3132;42.622;23.328;2022-08-20T09:21:56;12.57;;;11.40;;
6197;SDS011;3132;42.622;23.328;2022-08-20T09:24:21;11.90;;;10.90;;
6197;SDS011;3132;42.622;23.328;2022-08-20T09:26:47;13.98;;;12.68;;
6197;SDS011;3132;42.622;23.328;2022-08-20T09:29:12;12.07;;;11.10;;
6197;SDS011;3132;42.622;23.328;2022-08-20T09:31:37;13.20;;;11.90;;
6197;SDS011;3132;42.622;23.328;2022-08-20T09:34:03;12.52;;;11.38;;
6197;SDS011;3132;42.622;23.328;2022-08-20T09:36:28;12.70;;;11.60;;
6197;SDS011;3132;42.622;23.328;2022-08-20T09:38:54;13.30;;;12.10;;
6197;SDS011;3132;42.622;23.328;2022-08-20T09:41:20;13.27;;;12.10;;
6197;SDS011;3132;42.622;23.328;2022-08-20T09:43:45;12.05;;;11.02;;
6197;SDS011;3132;42.622;23.328;2022-08-20T09:46:11;12.48;;;11.32;;
6197;SDS011;3132;42.622;23.328;2022-08-20T09:48:36;13.25;;;11.93;;
6197;SDS011;3132;42.622;23.328;2022-08-20T09:51:02;12.30;;;11.13;;
6197;SDS011;3132;42.622;23.328;2022-08-20T09:53:27;13.63;;;12.52;;
6197;SDS011;3132;42.622;23.328;2022-08-20T09:55:54;11.55;;;10.57;;
6197;SDS011;3132;42.622;23.328;2022-08-20T09:59:02;12.88;;;11.88;;
6197;SDS011;3132;42.622;23.328;2022-08-20T10:01:14;11.65;;;10.75;;
6197;SDS011;3132;42.622;23.328;2022-08-20T10:03:42;11.18;;;10.27;;
6197;SDS011;3132;42.622;23.328;2022-08-20T10:06:08;12.00;;;11.10;;
6197;SDS011;3132;42.622;23.328;2022-08-20T10:08:35;12.88;;;11.88;;
6197;SDS011;3132;42.622;23.328;2022-08-20T10:11:01;12.82;;;11.73;;
6197;SDS011;3132;42.622;23.328;2022-08-20T10:13:26;13.93;;;12.07;;
6197;SDS011;3132;42.622;23.328;2022-08-20T10:15:51;13.27;;;12.13;;
6197;SDS011;3132;42.622;23.328;2022-08-20T10:18:17;14.30;;;13.00;;
6197;SDS011;3132;42.622;23.328;2022-08-20T10:20:42;12.07;;;11.10;;
6197;SDS011;3132;42.622;23.328;2022-08-20T10:23:07;12.68;;;11.48;;
6197;SDS011;3132;42.622;23.328;2022-08-20T10:25:33;12.23;;;11.13;;
6197;SDS011;3132;42.622;23.328;2022-08-20T10:27:59;13.32;;;12.02;;
6197;SDS011;3132;42.622;23.328;2022-08-20T10:30:24;13.43;;;12.27;;
6197;SDS011;3132;42.622;23.328;2022-08-20T10:32:49;13.15;;;11.27;;
6197;SDS011;3132;42.622;23.328;2022-08-20T10:35:15;12.90;;;11.90;;
6197;SDS011;3132;42.622;23.328;2022-08-20T10:37:41;12.63;;;11.52;;
6197;SDS011;3132;42.622;23.328;2022-08-20T10:40:07;11.82;;;10.80;;
6197;SDS011;3132;42.622;23.328;2022-08-20T10:42:33;12.70;;;11.60;;
6197;SDS011;3132;42.622;23.328;2022-08-20T10:44:58;12.95;;;11.60;;
6197;SDS011;3132;42.622;23.328;2022-08-20T10:47:25;11.95;;;11.00;;
6197;SDS011;3132;42.622;23.328;2022-08-20T10:49:55;13.23;;;12.13;;
6197;SDS011;3132;42.622;23.328;2022-08-20T10:52:24;12.82;;;11.68;;
6197;SDS011;3132;42.622;23.328;2022-08-20T10:54:50;12.73;;;11.52;;
6197;SDS011;3132;42.622;23.328;2022-08-20T10:57:21;11.57;;;10.77;;
6197;SDS011;3132;42.622;23.328;2022-08-20T10:59:49;12.15;;;11.10;;
6197;SDS011;3132;42.622;23.328;2022-08-20T11:02:16;12.35;;;11.35;;
6197;SDS011;3132;42.622;23.328;2022-08-20T11:04:42;12.52;;;11.52;;
6197;SDS011;3132;42.622;23.328;2022-08-20T11:07:30;11.68;;;10.82;;
6197;SDS011;3132;42.622;23.328;2022-08-20T11:09:58;11.57;;;10.40;;
6197;SDS011;3132;42.622;23.328;2022-08-20T11:12:23;12.60;;;11.48;;
6197;SDS011;3132;42.622;23.328;2022-08-20T11:14:50;12.40;;;11.20;;
6197;SDS011;3132;42.622;23.328;2022-08-20T11:17:20;12.20;;;11.20;;
6197;SDS011;3132;42.622;23.328;2022-08-20T11:19:46;12.30;;;11.10;;
6197;SDS011;3132;42.622;23.328;2022-08-20T11:22:11;14.60;;;10.63;;
6197;SDS011;3132;42.622;23.328;2022-08-20T11:24:37;12.57;;;11.57;;
6197;SDS011;3132;42.622;23.328;2022-08-20T11:27:03;13.40;;;11.40;;
6197;SDS011;3132;42.622;23.328;2022-08-20T11:29:31;13.18;;;11.88;;
6197;SDS011;3132;42.622;23.328;2022-08-20T11:31:57;12.18;;;11.18;;
6197;SDS011;3132;42.622;23.328;2022-08-20T11:34:22;11.80;;;10.75;;
6197;SDS011;3132;42.622;23.328;2022-08-20T11:36:48;11.07;;;10.18;;
6197;SDS011;3132;42.622;23.328;2022-08-20T11:39:13;12.73;;;11.63;;
6197;SDS011;3132;42.622;23.328;2022-08-20T11:41:39;12.77;;;11.68;;
6197;SDS011;3132;42.622;23.328;2022-08-20T11:44:05;12.05;;;11.05;;
6197;SDS011;3132;42.622;23.328;2022-08-20T11:46:30;13.20;;;12.00;;
6197;SDS011;3132;42.622;23.328;2022-08-20T11:48:57;12.00;;;10.93;;
6197;SDS011;3132;42.622;23.328;2022-08-20T11:51:23;13.52;;;12.32;;
6197;SDS011;3132;42.622;23.328;2022-08-20T11:53:48;12.25;;;11.05;;
6197;SDS011;3132;42.622;23.328;2022-08-20T11:56:14;13.52;;;12.18;;
6197;SDS011;3132;42.622;23.328;2022-08-20T11:58:40;13.23;;;11.85;;
6197;SDS011;3132;42.622;23.328;2022-08-20T12:01:06;13.27;;;12.18;;
6197;SDS011;3132;42.622;23.328;2022-08-20T12:03:31;13.27;;;12.18;;
6197;SDS011;3132;42.622;23.328;2022-08-20T12:05:57;12.23;;;11.07;;
6197;SDS011;3132;42.622;23.328;2022-08-20T12:08:22;12.38;;;11.02;;
6197;SDS011;3132;42.622;23.328;2022-08-20T12:10:47;12.93;;;11.73;;
6197;SDS011;3132;42.622;23.328;2022-08-20T12:13:13;11.75;;;10.88;;
6197;SDS011;3132;42.622;23.328;2022-08-20T12:15:38;14.80;;;11.73;;
6197;SDS011;3132;42.622;23.328;2022-08-20T12:18:07;15.18;;;12.63;;
6197;SDS011;3132;42.622;23.328;2022-08-20T12:20:32;18.33;;;14.95;;
6197;SDS011;3132;42.622;23.328;2022-08-20T12:22:58;27.25;;;16.10;;
6197;SDS011;3132;42.622;23.328;2022-08-20T12:25:24;25.95;;;16.40;;
6197;SDS011;3132;42.622;23.328;2022-08-20T12:27:50;21.85;;;16.70;;
6197;SDS011;3132;42.622;23.328;2022-08-20T12:30:16;18.42;;;15.50;;
6197;SDS011;3132;42.622;23.328;2022-08-20T12:32:44;17.58;;;15.98;;
6197;SDS011;3132;42.622;23.328;2022-08-20T12:35:11;33.67;;;16.50;;
6197;SDS011;3132;42.622;23.328;2022-08-20T12:37:38;20.63;;;15.27;;
6197;SDS011;3132;42.622;23.328;2022-08-20T12:40:05;22.83;;;16.38;;
6197;SDS011;3132;42.622;23.328;2022-08-20T12:42:34;26.10;;;19.77;;
6197;SDS011;3132;42.622;23.328;2022-08-20T12:45:00;24.50;;;17.73;;
6197;SDS011;3132;42.622;23.328;2022-08-20T12:47:26;47.97;;;19.83;;
6197;SDS011;3132;42.622;23.328;2022-08-20T12:49:58;27.10;;;17.70;;
6197;SDS011;3132;42.622;23.328;2022-08-20T12:52:25;19.92;;;17.77;;
6197;SDS011;3132;42.622;23.328;2022-08-20T12:54:53;22.50;;;20.13;;
6197;SDS011;3132;42.622;23.328;2022-08-20T13:00:00;22.85;;;17.35;;
6197;SDS011;3132;42.622;23.328;2022-08-20T13:02:29;21.45;;;19.15;;
6197;SDS011;3132;42.622;23.328;2022-08-20T13:04:54;19.60;;;17.50;;
6197;SDS011;3132;42.622;23.328;2022-08-20T13:07:20;21.40;;;19.45;;
6197;SDS011;3132;42.622;23.328;2022-08-20T13:09:45;21.40;;;19.35;;
6197;SDS011;3132;42.622;23.328;2022-08-20T13:12:10;22.35;;;18.45;;
6197;SDS011;3132;42.622;23.328;2022-08-20T13:14:38;19.75;;;17.80;;
6197;SDS011;3132;42.622;23.328;2022-08-20T13:17:04;19.77;;;17.70;;
6197;SDS011;3132;42.622;23.328;2022-08-20T13:19:31;21.08;;;18.75;;
6197;SDS011;3132;42.622;23.328;2022-08-20T13:21:57;18.67;;;16.77;;
6197;SDS011;3132;42.622;23.328;2022-08-20T13:24:23;22.08;;;18.23;;
6197;SDS011;3132;42.622;23.328;2022-08-20T13:26:48;19.55;;;17.73;;
6197;SDS011;3132;42.622;23.328;2022-08-20T13:29:15;19.13;;;17.30;;
6197;SDS011;3132;42.622;23.328;2022-08-20T13:31:41;20.98;;;18.38;;
6197;SDS011;3132;42.622;23.328;2022-08-20T13:34:07;20.67;;;18.58;;
6197;SDS011;3132;42.622;23.328;2022-08-20T13:36:34;21.55;;;19.25;;
6197;SDS011;3132;42.622;23.328;2022-08-20T13:39:01;20.15;;;18.20;;
6197;SDS011;3132;42.622;23.328;2022-08-20T13:41:28;21.33;;;19.23;;
6197;SDS011;3132;42.622;23.328;2022-08-20T13:43:54;20.08;;;18.15;;
6197;SDS011;3132;42.622;23.328;2022-08-20T13:46:19;20.10;;;17.85;;
6197;SDS011;3132;42.622;23.328;2022-08-20T13:48:44;22.75;;;18.42;;
6197;SDS011;3132;42.622;23.328;2022-08-20T13:51:10;22.05;;;18.35;;
6197;SDS011;3132;42.622;23.328;2022-08-20T13:53:35;21.85;;;19.27;;
6197;SDS011;3132;42.622;23.328;2022-08-20T13:56:00;23.73;;;19.42;;
6197;SDS011;3132;42.622;23.328;2022-08-20T13:58:26;22.15;;;18.67;;
6197;SDS011;3132;42.622;23.328;2022-08-20T14:00:51;22.33;;;19.83;;
6197;SDS011;3132;42.622;23.328;2022-08-20T14:03:17;21.75;;;19.35;;
6197;SDS011;3132;42.622;23.328;2022-08-20T14:05:43;21.52;;;19.23;;
6197;SDS011;3132;42.622;23.328;2022-08-20T14:08:16;19.90;;;17.58;;
6197;SDS011;3132;42.622;23.328;2022-08-20T14:10:43;20.58;;;18.02;;
6197;SDS011;3132;42.622;23.328;2022-08-20T14:13:10;21.77;;;18.83;;
6197;SDS011;3132;42.622;23.328;2022-08-20T14:15:36;22.08;;;19.48;;
6197;SDS011;3132;42.622;23.328;2022-08-20T14:18:02;23.02;;;17.70;;
6197;SDS011;3132;42.622;23.328;2022-08-20T14:20:29;20.67;;;18.58;;
6197;SDS011;3132;42.622;23.328;2022-08-20T14:22:55;21.90;;;18.98;;
6197;SDS011;3132;42.622;23.328;2022-08-20T14:25:22;21.55;;;19.55;;
6197;SDS011;3132;42.622;23.328;2022-08-20T14:27:48;20.83;;;18.80;;
6197;SDS011;3132;42.622;23.328;2022-08-20T14:30:19;21.50;;;19.33;;
6197;SDS011;3132;42.622;23.328;2022-08-20T14:32:47;21.65;;;18.85;;
6197;SDS011;3132;42.622;23.328;2022-08-20T14:35:13;21.70;;;19.60;;
6197;SDS011;3132;42.622;23.328;2022-08-20T14:37:40;21.73;;;19.63;;
6197;SDS011;3132;42.622;23.328;2022-08-20T14:40:08;21.52;;;19.40;;
6197;SDS011;3132;42.622;23.328;2022-08-20T14:42:36;20.48;;;18.58;;
6197;SDS011;3132;42.622;23.328;2022-08-20T14:45:02;19.10;;;17.20;;
6197;SDS011;3132;42.622;23.328;2022-08-20T14:47:32;20.27;;;18.15;;
6197;SDS011;3132;42.622;23.328;2022-08-20T14:50:01;20.60;;;17.98;;
6197;SDS011;3132;42.622;23.328;2022-08-20T14:52:31;18.17;;;16.48;;
6197;SDS011;3132;42.622;23.328;2022-08-20T14:55:04;17.35;;;15.60;;